C-tow Victoria — CFN6672 — position and weather

sailwx.info

Track history (hours):
 
Tides and Currents Weather Stations Pressure Air Temp Water Temp Dewpoint Dewpoint Depression Visibility Wind Speed Wind Dir Waves Ship Positions

C-tow Victoria

Last reported at 2018-Jul-16 22:02 UTC. Time now 2018-Jul-23 04:15 UTC.
Position N 48°50' W 123°27'.

Length 8 m.

MMSI: 316016881.

Date/timePositionNaut miles runAvg speedWind from/ knotsBaromVisibWave heightAir tempDewpointWater temp
2018-Jul-16 22:02N 48°50' W 123°27'0 9.4
2018-Jul-16 21:59N 48°50' W 123°26'8 0.4
2018-Jul-16 03:07N 48°42' W 123°24'1 8.0
2018-Jul-16 02:59N 48°42' W 123°26'3 6.0
2018-Jul-16 02:30N 48°40' W 123°30'2 1.1
2018-Jul-16 00:56N 48°39' W 123°29'11 7.1
2018-Jul-15 23:20N 48°50' W 123°27'2 0.7
2018-Jul-15 20:09N 48°49' W 123°24'2 7.8
2018-Jul-15 19:57N 48°50' W 123°25'8 0.4
2018-Jul-14 22:28N 48°42' W 123°25'611.1
2018-Jul-14 21:56N 48°39' W 123°33'4 8.5
2018-Jul-14 21:30N 48°42' W 123°29'  
2018-Jul-09 10:27N 48°42' W 123°25'5 4.0
2018-Jul-09 09:15N 48°38' W 123°29'2 5.4
2018-Jul-09 08:57N 48°39' W 123°28'3 0.1
2018-Jul-07 20:32N 48°42' W 123°25'228.6
2018-Jul-07 20:28N 48°42' W 123°27'2 0.8
2018-Jul-07 17:16N 48°41' W 123°24'0 0.0
2018-Jul-07 02:07N 48°41' W 123°24'1 6.4
2018-Jul-07 01:58N 48°42' W 123°25'3 6.5
2018-Jul-07 01:30N 48°43' W 123°30'4 6.7
2018-Jul-07 00:58N 48°45' W 123°34'1 0.4
2018-Jul-06 23:45N 48°46' W 123°34'  
Track history (hours):
 
Tides and Currents Weather Stations Pressure Air Temp Water Temp Dewpoint Dewpoint Depression Visibility Wind Speed Wind Dir Waves Ship Positions

C-tow Victoria

Last reported at 2018-Jul-16 22:02 UTC. Time now 2018-Jul-23 04:15 UTC.
Position N 48°50' W 123°27'.

Length 8 m.

MMSI: 316016881.

Date/timePositionNaut miles runAvg speedWind from/ knotsBaromVisibWave heightAir tempDewpointWater temp
2018-Jul-16 22:02N 48°50' W 123°27'0 9.4
2018-Jul-16 21:59N 48°50' W 123°26'8 0.4
2018-Jul-16 03:07N 48°42' W 123°24'1 8.0
2018-Jul-16 02:59N 48°42' W 123°26'3 6.0
2018-Jul-16 02:30N 48°40' W 123°30'2 1.1
2018-Jul-16 00:56N 48°39' W 123°29'11 7.1
2018-Jul-15 23:20N 48°50' W 123°27'2 0.7
2018-Jul-15 20:09N 48°49' W 123°24'2 7.8
2018-Jul-15 19:57N 48°50' W 123°25'8 0.4
2018-Jul-14 22:28N 48°42' W 123°25'611.1
2018-Jul-14 21:56N 48°39' W 123°33'4 8.5
2018-Jul-14 21:30N 48°42' W 123°29'  
2018-Jul-09 10:27N 48°42' W 123°25'5 4.0
2018-Jul-09 09:15N 48°38' W 123°29'2 5.4
2018-Jul-09 08:57N 48°39' W 123°28'3 0.1
2018-Jul-07 20:32N 48°42' W 123°25'228.6
2018-Jul-07 20:28N 48°42' W 123°27'2 0.8
2018-Jul-07 17:16N 48°41' W 123°24'0 0.0
2018-Jul-07 02:07N 48°41' W 123°24'1 6.4
2018-Jul-07 01:58N 48°42' W 123°25'3 6.5
2018-Jul-07 01:30N 48°43' W 123°30'4 6.7
2018-Jul-07 00:58N 48°45' W 123°34'1 0.4
2018-Jul-06 23:45N 48°46' W 123°34'  

Dump ship's entire track history